Time;durP1;ratioP1;P1;durP2;ratioP2;P2;SDS_P1;SDS_P2;PMS_P1;PMS_P2;Temp;Humidity;BMP_temperature;BMP_pressure;BME280_temperature;BME280_humidity;BME280_pressure;Samples;Min_cycle;Max_cycle;Signal;HPM_P1;HPM_P2
2023/06/29 00:01:03;;;;;;;16.75;12.73;;;;;;;;;;4922284;28;92970;-78
2023/06/29 00:03:31;;;;;;;20.85;13.38;;;;;;;;;;4915863;28;92454;-77
2023/06/29 00:05:59;;;;;;;18.88;13.73;;;;;;;;;;4914480;28;95520;-78
2023/06/29 00:08:27;;;;;;;20.58;13.18;;;;;;;;;;4919047;28;92411;-77
2023/06/29 00:10:54;;;;;;;22.33;14.77;;;;;;;;;;4907623;28;93973;-77
2023/06/29 00:13:22;;;;;;;20.30;13.27;;;;;;;;;;4903741;28;94836;-77
2023/06/29 00:15:48;;;;;;;22.83;13.05;;;;;;;;;;4910803;28;92823;-77
2023/06/29 00:18:15;;;;;;;17.75;13.40;;;;;;;;;;4910185;28;92861;-77
2023/06/29 00:20:42;;;;;;;20.63;14.00;;;;;;;;;;4898998;28;92267;-77
2023/06/29 00:23:09;;;;;;;19.15;13.48;;;;;;;;;;4915408;28;93166;-77
2023/06/29 00:25:36;;;;;;;22.95;15.18;;;;;;;;;;4890322;28;93298;-77
2023/06/29 00:28:02;;;;;;;23.60;14.27;;;;;;;;;;4917133;28;92446;-77
2023/06/29 00:30:29;;;;;;;19.52;13.77;;;;;;;;;;4905827;28;94971;-78
2023/06/29 00:32:57;;;;;;;25.42;13.32;;;;;;;;;;4914166;28;95509;-77
2023/06/29 00:35:23;;;;;;;22.08;14.18;;;;;;;;;;4888568;28;94189;-78
2023/06/29 00:37:50;;;;;;;20.52;13.25;;;;;;;;;;4913450;28;92392;-78
2023/06/29 00:40:17;;;;;;;23.00;14.27;;;;;;;;;;4899612;28;94450;-77
2023/06/29 00:42:43;;;;;;;19.55;13.85;;;;;;;;;;4904977;28;94591;-77
2023/06/29 00:45:10;;;;;;;16.45;12.50;;;;;;;;;;4914149;28;93093;-78
2023/06/29 00:47:37;;;;;;;25.33;13.95;;;;;;;;;;4899006;28;93891;-78
2023/06/29 00:50:06;;;;;;;20.75;14.68;;;;;;;;;;4913703;28;92539;-78
2023/06/29 00:52:33;;;;;;;22.33;14.45;;;;;;;;;;4898726;28;94521;-78
2023/06/29 00:54:59;;;;;;;24.70;14.82;;;;;;;;;;4909503;28;94913;-78
2023/06/29 00:57:29;;;;;;;22.42;14.32;;;;;;;;;;4908351;28;92609;-78
2023/06/29 00:59:59;;;;;;;20.73;14.60;;;;;;;;;;4903752;28;94252;-78
2023/06/29 01:02:30;;;;;;;22.65;14.02;;;;;;;;;;4918290;28;95345;-78
2023/06/29 01:04:59;;;;;;;21.70;15.68;;;;;;;;;;4899073;28;94104;-78
2023/06/29 01:07:30;;;;;;;22.10;14.95;;;;;;;;;;4898515;28;92444;-78
2023/06/29 01:09:58;;;;;;;23.27;15.60;;;;;;;;;;4899141;28;93975;-78
2023/06/29 01:12:25;;;;;;;21.05;14.73;;;;;;;;;;4906641;28;92276;-78
2023/06/29 01:14:54;;;;;;;23.83;13.73;;;;;;;;;;4908220;28;93196;-78
2023/06/29 01:17:23;;;;;;;21.67;14.93;;;;;;;;;;4909576;28;92671;-78
2023/06/29 01:19:50;;;;;;;30.10;15.18;;;;;;;;;;4895708;28;94879;-77
2023/06/29 01:22:35;;;;;;;21.75;15.30;;;;;;;;;;4921064;28;93652;-77
2023/06/29 01:25:03;;;;;;;18.45;13.43;;;;;;;;;;4913577;28;94125;-77
2023/06/29 01:27:29;;;;;;;21.80;14.32;;;;;;;;;;4908860;28;92405;-77
2023/06/29 01:30:00;;;;;;;21.83;14.55;;;;;;;;;;4897273;28;92369;-77
2023/06/29 01:32:34;;;;;;;23.38;15.15;;;;;;;;;;4915563;28;94534;-77
2023/06/29 01:35:02;;;;;;;25.33;14.13;;;;;;;;;;4910940;28;93231;-77
2023/06/29 01:37:34;;;;;;;22.35;14.55;;;;;;;;;;4915330;28;92323;-78
2023/06/29 01:40:08;;;;;;;20.60;14.63;;;;;;;;;;4915177;28;92538;-77
2023/06/29 01:42:35;;;;;;;23.45;14.65;;;;;;;;;;4902290;28;92539;-77
2023/06/29 01:45:07;;;;;;;18.30;12.93;;;;;;;;;;4884932;28;94941;-77
2023/06/29 01:47:34;;;;;;;25.10;14.80;;;;;;;;;;4917416;28;93978;-78
2023/06/29 01:50:02;;;;;;;26.40;15.43;;;;;;;;;;4902610;28;93131;-78
2023/06/29 01:52:29;;;;;;;17.30;13.23;;;;;;;;;;4910551;28;95047;-78
2023/06/29 01:54:56;;;;;;;24.83;15.38;;;;;;;;;;4913004;28;92281;-78
2023/06/29 01:57:23;;;;;;;21.38;14.35;;;;;;;;;;4898862;28;92481;-78
2023/06/29 01:59:51;;;;;;;20.35;13.68;;;;;;;;;;4908959;28;94155;-77
2023/06/29 02:02:18;;;;;;;29.10;16.23;;;;;;;;;;4909924;28;92084;-77
2023/06/29 02:04:44;;;;;;;21.92;15.63;;;;;;;;;;4902928;28;93580;-78
2023/06/29 02:07:11;;;;;;;32.78;15.85;;;;;;;;;;4910256;28;94015;-78
2023/06/29 02:09:39;;;;;;;22.85;15.60;;;;;;;;;;4900954;28;95253;-78
2023/06/29 02:12:06;;;;;;;22.10;15.40;;;;;;;;;;4917063;28;95423;-78
2023/06/29 02:14:32;;;;;;;20.23;14.13;;;;;;;;;;4919497;28;94869;-78
2023/06/29 02:16:58;;;;;;;22.15;14.90;;;;;;;;;;4900824;28;94660;-78
2023/06/29 02:19:25;;;;;;;22.25;16.13;;;;;;;;;;4900309;28;94821;-77
2023/06/29 02:21:51;;;;;;;25.02;16.13;;;;;;;;;;4898827;28;94904;-77
2023/06/29 02:24:18;;;;;;;23.05;16.58;;;;;;;;;;4900793;28;94443;-77
2023/06/29 02:26:45;;;;;;;22.35;15.88;;;;;;;;;;4902545;28;93561;-77
2023/06/29 02:29:11;;;;;;;26.95;16.15;;;;;;;;;;4916574;28;92398;-77
2023/06/29 02:31:38;;;;;;;28.08;17.77;;;;;;;;;;4915467;28;92375;-77
2023/06/29 02:34:05;;;;;;;22.25;16.42;;;;;;;;;;4928762;28;97378;-77
2023/06/29 02:36:32;;;;;;;28.08;17.55;;;;;;;;;;4920762;28;92174;-77
2023/06/29 02:38:58;;;;;;;28.15;19.23;;;;;;;;;;4929485;28;92362;-78
2023/06/29 02:41:25;;;;;;;26.77;18.00;;;;;;;;;;4911689;28;94298;-78
2023/06/29 02:43:52;;;;;;;26.58;16.95;;;;;;;;;;4902348;28;92497;-77
2023/06/29 02:46:19;;;;;;;25.63;17.70;;;;;;;;;;4889195;28;92466;-78
2023/06/29 02:48:46;;;;;;;28.88;19.20;;;;;;;;;;4904899;28;94552;-77
2023/06/29 02:51:13;;;;;;;28.08;17.73;;;;;;;;;;4926380;28;92117;-78
2023/06/29 02:53:40;;;;;;;26.65;17.25;;;;;;;;;;4920993;28;95750;-78
2023/06/29 02:56:06;;;;;;;27.63;15.65;;;;;;;;;;4909774;28;94065;-77
2023/06/29 02:58:33;;;;;;;27.50;18.13;;;;;;;;;;4910446;28;94896;-77
2023/06/29 03:01:02;;;;;;;26.45;18.02;;;;;;;;;;4911838;28;92607;-77
2023/06/29 03:03:28;;;;;;;26.00;17.77;;;;;;;;;;4898809;28;94548;-78
2023/06/29 03:05:55;;;;;;;24.45;17.85;;;;;;;;;;4916161;28;95267;-77
2023/06/29 03:08:21;;;;;;;27.17;18.15;;;;;;;;;;4911832;28;94717;-77
2023/06/29 03:10:48;;;;;;;28.95;19.27;;;;;;;;;;4920039;28;92747;-77
2023/06/29 03:13:15;;;;;;;26.13;18.90;;;;;;;;;;4915020;28;92882;-77
2023/06/29 03:15:41;;;;;;;28.23;18.70;;;;;;;;;;4914982;28;92100;-77
2023/06/29 03:18:10;;;;;;;28.58;19.42;;;;;;;;;;4900274;28;93034;-77
2023/06/29 03:20:39;;;;;;;28.90;19.00;;;;;;;;;;4916744;28;92486;-78
2023/06/29 03:23:05;;;;;;;28.75;18.30;;;;;;;;;;4898344;28;95129;-77
2023/06/29 03:25:32;;;;;;;33.30;18.58;;;;;;;;;;4917152;28;94037;-77
2023/06/29 03:27:59;;;;;;;25.08;17.60;;;;;;;;;;4903257;28;95451;-77
2023/06/29 03:30:25;;;;;;;25.88;17.58;;;;;;;;;;4911395;28;92418;-77
2023/06/29 03:32:53;;;;;;;27.55;18.35;;;;;;;;;;4901308;28;92404;-78
2023/06/29 03:35:19;;;;;;;25.35;16.73;;;;;;;;;;4905612;28;93170;-78
2023/06/29 03:37:46;;;;;;;26.98;17.25;;;;;;;;;;4920080;28;92963;-78
2023/06/29 03:40:13;;;;;;;27.02;17.77;;;;;;;;;;4908961;28;92116;-78
2023/06/29 03:42:39;;;;;;;31.63;19.40;;;;;;;;;;4901072;28;95447;-78
2023/06/29 03:45:06;;;;;;;31.98;19.08;;;;;;;;;;4899969;28;96947;-78
2023/06/29 03:47:33;;;;;;;32.60;19.30;;;;;;;;;;4903827;28;94676;-78
2023/06/29 03:50:00;;;;;;;30.65;18.88;;;;;;;;;;4904732;28;96373;-78
2023/06/29 03:52:26;;;;;;;33.97;20.95;;;;;;;;;;4912956;28;92910;-78
2023/06/29 03:54:53;;;;;;;30.23;19.40;;;;;;;;;;4901142;28;93717;-78
2023/06/29 03:57:19;;;;;;;25.67;17.02;;;;;;;;;;4906624;28;92518;-78
2023/06/29 03:59:46;;;;;;;26.10;18.08;;;;;;;;;;4924219;28;92301;-78
2023/06/29 04:02:13;;;;;;;32.45;19.88;;;;;;;;;;4919171;28;92497;-78
2023/06/29 04:04:39;;;;;;;36.70;19.38;;;;;;;;;;4918079;28;92171;-78
2023/06/29 04:07:06;;;;;;;28.92;18.40;;;;;;;;;;4916137;28;92435;-78
2023/06/29 04:09:33;;;;;;;34.60;21.98;;;;;;;;;;4915192;28;93058;-79
2023/06/29 04:11:59;;;;;;;32.20;20.25;;;;;;;;;;4914616;28;94838;-78
2023/06/29 04:14:26;;;;;;;32.38;20.67;;;;;;;;;;4900334;28;92704;-78
2023/06/29 04:16:52;;;;;;;31.92;20.08;;;;;;;;;;4893036;28;95729;-78
2023/06/29 04:19:19;;;;;;;27.80;17.98;;;;;;;;;;4917822;28;92759;-77
2023/06/29 04:21:45;;;;;;;36.15;20.48;;;;;;;;;;4914491;28;92707;-78
2023/06/29 04:24:12;;;;;;;30.75;19.42;;;;;;;;;;4918029;28;92773;-79
2023/06/29 04:26:39;;;;;;;34.33;20.70;;;;;;;;;;4902748;28;95047;-78
2023/06/29 04:29:08;;;;;;;28.77;18.70;;;;;;;;;;4921631;28;92974;-78
2023/06/29 04:31:35;;;;;;;31.98;20.77;;;;;;;;;;4917995;28;92453;-79
2023/06/29 04:34:04;;;;;;;26.98;19.05;;;;;;;;;;4907148;28;92727;-77
2023/06/29 04:36:31;;;;;;;34.90;20.75;;;;;;;;;;4907628;28;94778;-79
2023/06/29 04:38:58;;;;;;;41.72;22.75;;;;;;;;;;4918522;28;95221;-78
2023/06/29 04:41:31;;;;;;;36.13;22.65;;;;;;;;;;4917060;28;92945;-78
2023/06/29 04:43:58;;;;;;;35.15;19.83;;;;;;;;;;4900837;28;93073;-79
2023/06/29 04:46:26;;;;;;;37.70;21.85;;;;;;;;;;4912155;28;92438;-78
2023/06/29 04:48:52;;;;;;;29.58;18.85;;;;;;;;;;4918085;28;92315;-78
2023/06/29 04:51:19;;;;;;;33.55;22.25;;;;;;;;;;4919715;28;92373;-78
2023/06/29 04:53:46;;;;;;;32.63;19.92;;;;;;;;;;4911966;28;92386;-78
2023/06/29 04:56:12;;;;;;;29.50;19.90;;;;;;;;;;4911628;28;92142;-78
2023/06/29 04:58:39;;;;;;;32.42;19.35;;;;;;;;;;4885869;28;94546;-79
2023/06/29 05:01:05;;;;;;;29.58;18.98;;;;;;;;;;4913482;28;94802;-78
2023/06/29 05:03:32;;;;;;;33.60;20.73;;;;;;;;;;4915021;28;96194;-78
2023/06/29 05:05:59;;;;;;;29.92;20.17;;;;;;;;;;4908842;28;92528;-79
2023/06/29 05:08:26;;;;;;;35.92;22.42;;;;;;;;;;4913830;28;92526;-79
2023/06/29 05:10:52;;;;;;;35.58;21.77;;;;;;;;;;4900004;28;94491;-78
2023/06/29 05:13:19;;;;;;;35.63;21.63;;;;;;;;;;4898882;28;92422;-79
2023/06/29 05:15:47;;;;;;;31.73;21.05;;;;;;;;;;4916294;28;92559;-78
2023/06/29 05:18:14;;;;;;;33.38;23.20;;;;;;;;;;4914731;28;92368;-77
2023/06/29 05:20:41;;;;;;;34.70;21.38;;;;;;;;;;4916045;28;92385;-78
2023/06/29 05:23:09;;;;;;;32.65;21.85;;;;;;;;;;4916432;28;92306;-78
2023/06/29 05:25:35;;;;;;;36.83;22.15;;;;;;;;;;4895121;28;96310;-79
2023/06/29 05:28:02;;;;;;;36.20;21.92;;;;;;;;;;4899736;28;92342;-78
2023/06/29 05:30:29;;;;;;;27.30;18.85;;;;;;;;;;4914930;28;92862;-78
2023/06/29 05:32:55;;;;;;;38.75;23.85;;;;;;;;;;4917577;28;92331;-78
2023/06/29 05:35:22;;;;;;;33.95;21.67;;;;;;;;;;4899494;28;92510;-78
2023/06/29 05:37:48;;;;;;;39.63;22.92;;;;;;;;;;4915514;28;93208;-78
2023/06/29 05:40:15;;;;;;;31.48;21.17;;;;;;;;;;4913315;28;93181;-78
2023/06/29 05:42:42;;;;;;;32.45;20.20;;;;;;;;;;4918234;28;93163;-77
2023/06/29 05:45:09;;;;;;;37.33;22.60;;;;;;;;;;4901893;28;93241;-78
2023/06/29 05:47:35;;;;;;;34.92;20.70;;;;;;;;;;4914082;28;92553;-77
2023/06/29 05:50:03;;;;;;;34.13;21.98;;;;;;;;;;4911093;28;94816;-77
2023/06/29 05:52:30;;;;;;;35.58;20.48;;;;;;;;;;4927022;28;92567;-78
2023/06/29 05:54:57;;;;;;;29.80;22.10;;;;;;;;;;4916244;28;93002;-78
2023/06/29 05:57:23;;;;;;;34.75;22.10;;;;;;;;;;4912608;28;92621;-78
2023/06/29 05:59:51;;;;;;;32.15;20.70;;;;;;;;;;4906389;28;92444;-78
2023/06/29 06:02:17;;;;;;;32.65;21.02;;;;;;;;;;4913112;28;92945;-78
2023/06/29 06:04:44;;;;;;;41.50;21.95;;;;;;;;;;4922132;28;92365;-78
2023/06/29 06:07:13;;;;;;;45.20;22.27;;;;;;;;;;4920940;28;92095;-78
2023/06/29 06:09:39;;;;;;;35.90;21.65;;;;;;;;;;4903473;28;93426;-78
2023/06/29 06:12:06;;;;;;;42.03;25.70;;;;;;;;;;4900703;28;94803;-78
2023/06/29 06:14:33;;;;;;;36.92;22.67;;;;;;;;;;4913861;28;94784;-78
2023/06/29 06:16:59;;;;;;;37.85;22.17;;;;;;;;;;4921782;28;94061;-77
2023/06/29 06:19:26;;;;;;;38.97;22.13;;;;;;;;;;4922356;28;93816;-78
2023/06/29 06:21:52;;;;;;;38.47;23.20;;;;;;;;;;4921891;28;92310;-78
2023/06/29 06:24:18;;;;;;;35.78;22.45;;;;;;;;;;4922599;28;94389;-78
2023/06/29 06:26:45;;;;;;;37.70;22.90;;;;;;;;;;4928391;28;92415;-78
2023/06/29 06:29:12;;;;;;;37.03;23.23;;;;;;;;;;4908894;28;93077;-78
2023/06/29 06:31:39;;;;;;;38.80;21.95;;;;;;;;;;4924790;28;91539;-78
2023/06/29 06:34:06;;;;;;;36.47;22.73;;;;;;;;;;4899651;28;92636;-79
2023/06/29 06:36:32;;;;;;;38.35;21.88;;;;;;;;;;4909967;28;93724;-79
2023/06/29 06:38:59;;;;;;;32.40;20.65;;;;;;;;;;4918942;28;94880;-79
2023/06/29 06:41:26;;;;;;;32.95;21.80;;;;;;;;;;4926025;28;93743;-79
2023/06/29 06:43:53;;;;;;;35.45;22.60;;;;;;;;;;4932255;28;92274;-79
2023/06/29 06:46:19;;;;;;;33.90;22.85;;;;;;;;;;4908927;28;92578;-79
2023/06/29 06:48:48;;;;;;;36.17;22.20;;;;;;;;;;4913813;28;93834;-79
2023/06/29 06:51:15;;;;;;;42.30;22.50;;;;;;;;;;4904551;28;92265;-79
2023/06/29 06:53:41;;;;;;;33.63;22.52;;;;;;;;;;4923321;28;92516;-79
2023/06/29 06:56:08;;;;;;;36.05;22.20;;;;;;;;;;4898104;28;93385;-78
2023/06/29 06:58:34;;;;;;;36.30;22.58;;;;;;;;;;4906326;28;92579;-79
2023/06/29 07:01:01;;;;;;;36.92;21.95;;;;;;;;;;4922812;28;92338;-79
2023/06/29 07:03:27;;;;;;;33.38;21.40;;;;;;;;;;4906580;28;94842;-79
2023/06/29 07:05:55;;;;;;;36.42;21.65;;;;;;;;;;4909417;28;92926;-78
2023/06/29 07:08:22;;;;;;;37.70;20.95;;;;;;;;;;4920515;28;92651;-78
2023/06/29 07:10:51;;;;;;;35.97;22.13;;;;;;;;;;4909324;28;93133;-78
2023/06/29 07:13:18;;;;;;;33.17;20.52;;;;;;;;;;4906660;28;92552;-78
2023/06/29 07:15:48;;;;;;;37.45;21.40;;;;;;;;;;4908466;28;95630;-80
2023/06/29 07:18:14;;;;;;;32.92;22.10;;;;;;;;;;4904239;28;94718;-78
2023/06/29 07:20:41;;;;;;;36.65;21.35;;;;;;;;;;4903470;28;92174;-78
2023/06/29 07:23:10;;;;;;;38.58;21.25;;;;;;;;;;4919708;28;92606;-78
2023/06/29 07:25:39;;;;;;;36.13;21.05;;;;;;;;;;4924683;28;92316;-79
2023/06/29 07:28:06;;;;;;;34.83;19.60;;;;;;;;;;4918295;28;94701;-79
2023/06/29 07:30:33;;;;;;;40.92;22.42;;;;;;;;;;4897702;28;94101;-79
2023/06/29 07:33:00;;;;;;;33.47;20.98;;;;;;;;;;4910781;28;92442;-78
2023/06/29 07:35:27;;;;;;;33.42;21.17;;;;;;;;;;4921202;28;92336;-78
2023/06/29 07:37:53;;;;;;;36.40;20.45;;;;;;;;;;4921478;28;92515;-78
2023/06/29 07:40:20;;;;;;;44.70;21.77;;;;;;;;;;4922255;28;92934;-78
2023/06/29 07:42:47;;;;;;;41.72;21.15;;;;;;;;;;4921979;28;93060;-78
2023/06/29 07:45:13;;;;;;;34.60;22.17;;;;;;;;;;4920877;28;91875;-78
2023/06/29 07:47:41;;;;;;;38.50;22.52;;;;;;;;;;4889116;28;93397;-78
2023/06/29 07:50:08;;;;;;;38.03;22.08;;;;;;;;;;4911480;28;93235;-78
2023/06/29 07:52:34;;;;;;;32.65;20.98;;;;;;;;;;4912418;28;94973;-78
2023/06/29 07:55:01;;;;;;;35.92;23.38;;;;;;;;;;4897046;28;92568;-78
2023/06/29 07:57:27;;;;;;;37.42;22.02;;;;;;;;;;4897121;28;92570;-78
2023/06/29 07:59:57;;;;;;;40.85;21.95;;;;;;;;;;4916622;28;92210;-79
2023/06/29 08:02:24;;;;;;;36.78;21.80;;;;;;;;;;4899389;28;94923;-78
2023/06/29 08:04:50;;;;;;;37.83;22.58;;;;;;;;;;4901386;28;92461;-78
2023/06/29 08:07:20;;;;;;;36.55;21.85;;;;;;;;;;4916042;28;93638;-78
2023/06/29 08:09:46;;;;;;;29.98;20.95;;;;;;;;;;4912726;28;92181;-79
2023/06/29 08:12:13;;;;;;;35.97;21.63;;;;;;;;;;4901208;28;92505;-79
2023/06/29 08:14:39;;;;;;;35.97;21.75;;;;;;;;;;4917466;28;92411;-78
2023/06/29 08:17:06;;;;;;;40.35;23.73;;;;;;;;;;4902388;28;94781;-78
2023/06/29 08:19:33;;;;;;;37.72;22.23;;;;;;;;;;4918968;28;92736;-79
2023/06/29 08:21:59;;;;;;;39.10;20.83;;;;;;;;;;4919257;28;93311;-79
2023/06/29 08:24:26;;;;;;;34.78;22.05;;;;;;;;;;4916488;28;93269;-78
2023/06/29 08:26:52;;;;;;;32.13;23.52;;;;;;;;;;4926403;28;94480;-79
2023/06/29 08:29:19;;;;;;;39.05;22.33;;;;;;;;;;4915427;28;92397;-79
2023/06/29 08:31:45;;;;;;;35.60;21.88;;;;;;;;;;4915448;28;92408;-79
2023/06/29 08:34:12;;;;;;;41.38;22.88;;;;;;;;;;4913220;28;92959;-80
2023/06/29 08:36:39;;;;;;;38.35;24.33;;;;;;;;;;4919864;28;92213;-79
2023/06/29 08:39:05;;;;;;;37.90;23.38;;;;;;;;;;4920513;28;94253;-79
2023/06/29 08:41:32;;;;;;;37.20;23.85;;;;;;;;;;4905513;28;94978;-79
2023/06/29 08:43:58;;;;;;;30.00;22.48;;;;;;;;;;4917739;28;92530;-78
2023/06/29 08:46:27;;;;;;;34.75;23.00;;;;;;;;;;4908430;28;92444;-79
2023/06/29 08:48:54;;;;;;;31.40;22.40;;;;;;;;;;4916529;28;94325;-79
2023/06/29 08:51:21;;;;;;;39.08;23.45;;;;;;;;;;4907513;28;92421;-78
2023/06/29 08:53:49;;;;;;;33.85;23.27;;;;;;;;;;4915202;28;94698;-79
2023/06/29 08:56:16;;;;;;;32.28;22.45;;;;;;;;;;4921042;28;92400;-78
2023/06/29 08:58:43;;;;;;;35.30;21.20;;;;;;;;;;4927860;28;94466;-80
2023/06/29 09:01:09;;;;;;;34.78;23.33;;;;;;;;;;4920480;28;92219;-79
2023/06/29 09:03:38;;;;;;;33.53;22.25;;;;;;;;;;4919388;28;92423;-79
2023/06/29 09:06:06;;;;;;;37.08;23.00;;;;;;;;;;4917822;28;94531;-79
2023/06/29 09:08:36;;;;;;;33.53;21.75;;;;;;;;;;4920795;28;94080;-79
2023/06/29 09:11:03;;;;;;;34.95;22.77;;;;;;;;;;4924924;28;93525;-80
2023/06/29 09:13:33;;;;;;;40.38;23.23;;;;;;;;;;4924268;28;92336;-80
2023/06/29 09:16:03;;;;;;;36.50;23.20;;;;;;;;;;4908822;28;92322;-79
2023/06/29 09:18:32;;;;;;;34.88;23.33;;;;;;;;;;4907460;28;93172;-80
2023/06/29 09:20:58;;;;;;;31.65;23.17;;;;;;;;;;4919372;28;94580;-78
2023/06/29 09:23:25;;;;;;;35.13;22.38;;;;;;;;;;4919323;28;92019;-80
2023/06/29 09:25:53;;;;;;;37.13;22.17;;;;;;;;;;4918438;28;92352;-80
2023/06/29 09:28:20;;;;;;;35.13;21.13;;;;;;;;;;4898630;28;95797;-80
2023/06/29 09:30:49;;;;;;;36.90;23.00;;;;;;;;;;4893246;28;95953;-80
2023/06/29 09:33:16;;;;;;;29.67;21.63;;;;;;;;;;4921791;28;94538;-79
2023/06/29 09:35:47;;;;;;;33.40;21.73;;;;;;;;;;4922855;28;92487;-79
2023/06/29 09:38:15;;;;;;;32.92;22.33;;;;;;;;;;4906809;28;92327;-79
2023/06/29 09:40:52;;;;;;;34.08;21.73;;;;;;;;;;4920808;28;92994;-79
2023/06/29 09:43:20;;;;;;;33.88;20.80;;;;;;;;;;4889300;28;92334;-79
2023/06/29 09:45:47;;;;;;;30.83;20.95;;;;;;;;;;4904565;28;93503;-79
2023/06/29 09:48:27;;;;;;;35.10;22.67;;;;;;;;;;4911677;28;120912;-80
2023/06/29 09:50:57;;;;;;;28.08;20.58;;;;;;;;;;4918646;28;94306;-78
2023/06/29 09:53:32;;;;;;;28.83;21.13;;;;;;;;;;4921570;28;92178;-78
2023/06/29 09:56:01;;;;;;;32.00;20.15;;;;;;;;;;4910336;28;94644;-79
2023/06/29 09:58:29;;;;;;;40.97;20.95;;;;;;;;;;4920839;28;92224;-78
2023/06/29 10:00:59;;;;;;;30.88;21.02;;;;;;;;;;4902733;28;92391;-79
2023/06/29 10:03:27;;;;;;;29.70;20.48;;;;;;;;;;4920773;28;93118;-78
2023/06/29 10:05:56;;;;;;;31.90;20.10;;;;;;;;;;4904542;28;92533;-79
2023/06/29 10:08:24;;;;;;;25.85;20.13;;;;;;;;;;4908339;28;92438;-79
2023/06/29 10:10:53;;;;;;;26.83;19.02;;;;;;;;;;4902758;28;92050;-79
2023/06/29 10:13:19;;;;;;;28.30;19.45;;;;;;;;;;4918700;28;92079;-79
2023/06/29 10:15:48;;;;;;;35.17;20.00;;;;;;;;;;4900966;28;92629;-79
2023/06/29 10:18:22;;;;;;;31.35;19.75;;;;;;;;;;4916353;28;93963;-80
2023/06/29 10:20:49;;;;;;;27.17;18.83;;;;;;;;;;4903348;28;94827;-79
2023/06/29 10:23:17;;;;;;;30.73;18.77;;;;;;;;;;4902789;28;96277;-79
2023/06/29 10:25:44;;;;;;;26.63;18.23;;;;;;;;;;4910357;28;92241;-79
2023/06/29 10:28:12;;;;;;;33.45;21.00;;;;;;;;;;4899082;28;92379;-78
2023/06/29 10:30:47;;;;;;;32.75;19.80;;;;;;;;;;4920117;28;93593;-79
2023/06/29 10:33:21;;;;;;;27.05;19.35;;;;;;;;;;4908855;28;93590;-79
2023/06/29 10:35:54;;;;;;;30.30;19.77;;;;;;;;;;4922788;28;93871;-79
2023/06/29 10:38:26;;;;;;;28.45;18.83;;;;;;;;;;4927861;28;91920;-79
2023/06/29 10:40:52;;;;;;;35.47;20.35;;;;;;;;;;4926453;28;92377;-79
2023/06/29 10:43:19;;;;;;;28.40;19.40;;;;;;;;;;4887598;28;93519;-79
2023/06/29 10:45:45;;;;;;;33.65;19.17;;;;;;;;;;4908433;28;95660;-79
2023/06/29 10:48:16;;;;;;;26.00;19.17;;;;;;;;;;4908125;28;93413;-78
2023/06/29 10:51:05;;;;;;;33.45;19.92;;;;;;;;;;4927841;28;92430;-80
2023/06/29 10:53:34;;;;;;;28.30;19.83;;;;;;;;;;4902064;28;93995;-79
2023/06/29 10:56:01;;;;;;;28.00;18.23;;;;;;;;;;4924749;28;92331;-79
2023/06/29 10:58:35;;;;;;;25.80;17.73;;;;;;;;;;4924788;28;92520;-80
2023/06/29 11:01:02;;;;;;;26.33;18.02;;;;;;;;;;4928907;28;92848;-80
2023/06/29 11:03:29;;;;;;;27.98;19.50;;;;;;;;;;4916754;28;92014;-80
2023/06/29 11:05:57;;;;;;;36.05;18.88;;;;;;;;;;4907488;28;93500;-79
2023/06/29 11:08:24;;;;;;;27.48;18.85;;;;;;;;;;4921207;28;92484;-79
2023/06/29 11:10:51;;;;;;;27.73;18.75;;;;;;;;;;4906527;28;94974;-79
2023/06/29 11:13:18;;;;;;;24.38;17.33;;;;;;;;;;4920663;28;92369;-79
2023/06/29 11:15:53;;;;;;;29.25;18.25;;;;;;;;;;4921833;28;92399;-79
2023/06/29 11:18:20;;;;;;;25.83;17.30;;;;;;;;;;4902966;28;94704;-80
2023/06/29 11:20:46;;;;;;;28.88;18.45;;;;;;;;;;4906710;28;93055;-79
2023/06/29 11:23:13;;;;;;;25.20;18.00;;;;;;;;;;4905520;28;94223;-80
2023/06/29 11:25:39;;;;;;;33.00;20.50;;;;;;;;;;4923661;28;93274;-79
2023/06/29 11:28:06;;;;;;;30.60;19.67;;;;;;;;;;4925231;28;92239;-79
2023/06/29 11:30:37;;;;;;;32.17;20.67;;;;;;;;;;4925137;28;92164;-80
2023/06/29 11:33:04;;;;;;;28.33;19.08;;;;;;;;;;4912225;28;92499;-80
2023/06/29 11:35:50;;;;;;;30.83;19.30;;;;;;;;;;4923156;28;94631;-80
2023/06/29 11:38:18;;;;;;;26.92;18.98;;;;;;;;;;4910441;28;92340;-79
2023/06/29 11:40:44;;;;;;;32.15;19.55;;;;;;;;;;4921881;28;93107;-79
2023/06/29 11:43:14;;;;;;;27.10;20.10;;;;;;;;;;4905360;28;93204;-79
2023/06/29 11:45:41;;;;;;;28.02;19.33;;;;;;;;;;4904129;28;94197;-79
2023/06/29 11:48:08;;;;;;;27.10;18.30;;;;;;;;;;4907261;28;92870;-80
2023/06/29 11:50:36;;;;;;;26.42;19.23;;;;;;;;;;4924288;28;92410;-79
2023/06/29 11:53:05;;;;;;;24.63;17.92;;;;;;;;;;4909091;28;93136;-79
2023/06/29 11:55:31;;;;;;;27.90;19.13;;;;;;;;;;4930921;28;95354;-78
2023/06/29 11:57:58;;;;;;;33.42;18.85;;;;;;;;;;4903583;28;92475;-79
2023/06/29 12:00:26;;;;;;;30.75;19.63;;;;;;;;;;4900714;28;94499;-78
2023/06/29 12:02:53;;;;;;;28.20;19.75;;;;;;;;;;4912726;28;94223;-79
2023/06/29 12:05:24;;;;;;;27.52;19.73;;;;;;;;;;4916870;28;92358;-79
2023/06/29 12:07:51;;;;;;;28.63;18.83;;;;;;;;;;4918985;28;92555;-78
2023/06/29 12:10:22;;;;;;;29.17;19.33;;;;;;;;;;4891180;28;95394;-79
2023/06/29 12:12:55;;;;;;;26.98;19.63;;;;;;;;;;4907105;28;95046;-79
2023/06/29 12:15:23;;;;;;;24.75;18.40;;;;;;;;;;4924587;28;92289;-79
2023/06/29 12:17:50;;;;;;;30.38;18.80;;;;;;;;;;4910567;28;94253;-79
2023/06/29 12:20:21;;;;;;;29.83;21.25;;;;;;;;;;4923062;28;92482;-80
2023/06/29 12:22:49;;;;;;;29.00;19.00;;;;;;;;;;4919467;28;92051;-80
2023/06/29 12:25:17;;;;;;;29.90;17.73;;;;;;;;;;4914267;28;94926;-80
2023/06/29 12:27:44;;;;;;;25.73;18.48;;;;;;;;;;4916889;28;92351;-79
2023/06/29 12:30:14;;;;;;;27.13;18.38;;;;;;;;;;4919830;28;94836;-79
2023/06/29 12:32:42;;;;;;;26.48;18.33;;;;;;;;;;4913871;28;92741;-79
2023/06/29 12:35:08;;;;;;;27.92;17.08;;;;;;;;;;4903043;28;94334;-80
2023/06/29 12:37:38;;;;;;;26.55;17.02;;;;;;;;;;4919121;28;92865;-80
2023/06/29 12:40:05;;;;;;;21.48;16.33;;;;;;;;;;4900675;28;92564;-80
2023/06/29 12:42:32;;;;;;;26.30;17.50;;;;;;;;;;4914519;28;91726;-80
2023/06/29 12:45:02;;;;;;;27.90;18.38;;;;;;;;;;4919460;28;92463;-79
2023/06/29 12:47:35;;;;;;;23.55;16.30;;;;;;;;;;4901052;28;92408;-80
2023/06/29 12:50:03;;;;;;;21.70;16.83;;;;;;;;;;4885767;28;95223;-80
2023/06/29 12:52:30;;;;;;;26.85;15.60;;;;;;;;;;4905125;28;92409;-80
2023/06/29 12:54:56;;;;;;;26.90;16.92;;;;;;;;;;4915837;28;92463;-80
2023/06/29 12:57:28;;;;;;;23.55;15.95;;;;;;;;;;4915730;28;92176;-80
2023/06/29 12:59:55;;;;;;;23.25;15.43;;;;;;;;;;4919096;28;92374;-79
2023/06/29 13:02:22;;;;;;;21.40;14.63;;;;;;;;;;4900722;28;92922;-79
2023/06/29 13:04:49;;;;;;;26.13;17.80;;;;;;;;;;4923383;28;94758;-80
2023/06/29 13:07:17;;;;;;;24.00;15.15;;;;;;;;;;4900071;28;95860;-80
2023/06/29 13:09:44;;;;;;;20.75;12.27;;;;;;;;;;4908850;28;92477;-80
2023/06/29 13:12:14;;;;;;;18.90;12.55;;;;;;;;;;4883091;28;96245;-80
2023/06/29 13:14:41;;;;;;;20.45;13.30;;;;;;;;;;4902020;28;95742;-80
2023/06/29 13:17:09;;;;;;;22.23;12.48;;;;;;;;;;4910353;28;94162;-80
2023/06/29 13:19:42;;;;;;;22.58;13.38;;;;;;;;;;4896516;28;92463;-79
2023/06/29 13:22:08;;;;;;;22.67;12.10;;;;;;;;;;4910583;28;92182;-80
2023/06/29 13:24:35;;;;;;;18.17;12.55;;;;;;;;;;4905051;28;94318;-80
2023/06/29 13:27:03;;;;;;;19.17;12.43;;;;;;;;;;4908661;28;95192;-80
2023/06/29 13:29:30;;;;;;;20.27;12.13;;;;;;;;;;4907694;28;92255;-79
2023/06/29 13:31:57;;;;;;;19.08;12.45;;;;;;;;;;4923914;28;93898;-79
2023/06/29 13:34:25;;;;;;;19.55;12.02;;;;;;;;;;4921084;28;93421;-80
2023/06/29 13:36:52;;;;;;;18.73;13.00;;;;;;;;;;4921516;28;94252;-80
2023/06/29 13:39:19;;;;;;;20.30;12.55;;;;;;;;;;4897944;28;97541;-79
2023/06/29 13:41:45;;;;;;;20.80;12.88;;;;;;;;;;4929621;28;93960;-80
2023/06/29 13:44:13;;;;;;;18.88;12.45;;;;;;;;;;4908348;28;95523;-80
2023/06/29 13:46:40;;;;;;;19.02;13.38;;;;;;;;;;4905575;28;93985;-80
2023/06/29 13:49:06;;;;;;;19.95;12.88;;;;;;;;;;4913351;28;92447;-80
2023/06/29 13:51:34;;;;;;;16.88;12.50;;;;;;;;;;4906649;28;93120;-80
2023/06/29 13:54:04;;;;;;;21.77;11.70;;;;;;;;;;4903075;28;95350;-80
2023/06/29 13:56:34;;;;;;;17.23;11.80;;;;;;;;;;4922746;28;92169;-82
2023/06/29 13:59:06;;;;;;;15.73;11.77;;;;;;;;;;4901564;28;95397;-81
2023/06/29 14:01:35;;;;;;;20.17;11.75;;;;;;;;;;4920237;28;92408;-81
2023/06/29 14:04:03;;;;;;;15.02;11.75;;;;;;;;;;4896463;28;95091;-80
2023/06/29 14:06:30;;;;;;;18.67;12.55;;;;;;;;;;4905933;28;94121;-81
2023/06/29 14:08:56;;;;;;;17.00;11.63;;;;;;;;;;4918558;28;92532;-80
2023/06/29 14:11:23;;;;;;;18.02;12.65;;;;;;;;;;4925625;28;91991;-81
2023/06/29 14:13:51;;;;;;;15.32;10.88;;;;;;;;;;4922236;28;93183;-81
2023/06/29 14:16:17;;;;;;;24.77;11.85;;;;;;;;;;4915012;28;93419;-81
2023/06/29 14:18:44;;;;;;;14.98;10.90;;;;;;;;;;4922883;28;93112;-79